Time;durP1;ratioP1;P1;durP2;ratioP2;P2;SDS_P1;SDS_P2;PMS_P1;PMS_P2;Temp;Humidity;BMP_temperature;BMP_pressure;BME280_temperature;BME280_humidity;BME280_pressure;Samples;Min_cycle;Max_cycle;Signal;HPM_P1;HPM_P2
2023/07/16 00:01:48;;;;;;;;;;;;;;;;;;4956300;28;19992;-69
2023/07/16 00:04:14;;;;;;;;;;;;;;;;;;4956639;28;20331;-69
2023/07/16 00:06:40;;;;;;;;;;;;;;;;;;4955980;28;19958;-69
2023/07/16 00:09:06;;;;;;;;;;;;;;;;;;4956541;28;19965;-69
2023/07/16 00:11:32;;;;;;;;;;;;;;;;;;4955931;28;19957;-69
2023/07/16 00:13:58;;;;;;;;;;;;;;;;;;4956448;28;20001;-70
2023/07/16 00:16:24;;;;;;;;;;;;;;;;;;4956119;28;19957;-70
2023/07/16 00:18:50;;;;;;;;;;;;;;;;;;4955834;28;19958;-70
2023/07/16 00:21:15;;;;;;;;;;;;;;;;;;4955963;28;19984;-71
2023/07/16 00:23:41;;;;;;;;;;;;;;;;;;4956002;28;19958;-69
2023/07/16 00:26:07;;;;;;;;;;;;;;;;;;4955729;28;19957;-70
2023/07/16 00:28:33;;;;;;;;;;;;;;;;;;4955755;28;19957;-70
2023/07/16 00:30:59;;;;;;;;;;;;;;;;;;4955386;28;19958;-70
2023/07/16 00:33:25;;;;;;;;;;;;;;;;;;4955148;28;19962;-70
2023/07/16 00:35:51;;;;;;;;;;;;;;;;;;4955971;28;19958;-70
2023/07/16 00:38:17;;;;;;;;;;;;;;;;;;4955632;28;19958;-69
2023/07/16 00:40:42;;;;;;;;;;;;;;;;;;4956059;28;20340;-71
2023/07/16 00:43:08;;;;;;;;;;;;;;;;;;4955571;28;19989;-70
2023/07/16 00:45:34;;;;;;;;;;;;;;;;;;4955418;28;20155;-70
2023/07/16 00:48:00;;;;;;;;;;;;;;;;;;4956076;28;19958;-71
2023/07/16 00:50:27;;;;;;;;;;;;;;;;;;4955518;28;19957;-70
2023/07/16 00:52:53;;;;;;;;;;;;;;;;;;4956017;28;19973;-69
2023/07/16 00:55:19;;;;;;;;;;;;;;;;;;4955717;28;19958;-70
2023/07/16 00:57:45;;;;;;;;;;;;;;;;;;4955424;28;20320;-70
2023/07/16 01:00:11;;;;;;;;;;;;;;;;;;4955403;28;19965;-70
2023/07/16 01:02:37;;;;;;;;;;;;;;;;;;4955605;28;20025;-68
2023/07/16 01:05:03;;;;;;;;;;;;;;;;;;4955617;28;20408;-69
2023/07/16 01:07:29;;;;;;;;;;;;;;;;;;4955574;28;19965;-70
2023/07/16 01:09:54;;;;;;;;;;;;;;;;;;4955335;28;19962;-69
2023/07/16 01:12:20;;;;;;;;;;;;;;;;;;4956323;28;20026;-69
2023/07/16 01:14:46;;;;;;;;;;;;;;;;;;4955243;28;20420;-70
2023/07/16 01:17:12;;;;;;;;;;;;;;;;;;4955270;28;19965;-71
2023/07/16 01:19:38;;;;;;;;;;;;;;;;;;4955246;28;19965;-69
2023/07/16 01:22:04;;;;;;;;;;;;;;;;;;4955129;28;20072;-71
2023/07/16 01:24:30;;;;;;;;;;;;;;;;;;4955427;28;19957;-69
2023/07/16 01:26:56;;;;;;;;;;;;;;;;;;4955425;28;19957;-70
2023/07/16 01:29:22;;;;;;;;;;;;;;;;;;4955179;28;19958;-71
2023/07/16 01:31:48;;;;;;;;;;;;;;;;;;4953855;28;19962;-69
2023/07/16 01:34:13;;;;;;;;;;;;;;;;;;4955668;28;19957;-70
2023/07/16 01:36:39;;;;;;;;;;;;;;;;;;4955334;28;20005;-70
2023/07/16 01:39:05;;;;;;;;;;;;;;;;;;4955341;28;19961;-70
2023/07/16 01:41:31;;;;;;;;;;;;;;;;;;4954806;28;19990;-70
2023/07/16 01:43:57;;;;;;;;;;;;;;;;;;4956931;28;20313;-71
2023/07/16 01:46:23;;;;;;;;;;;;;;;;;;4958591;28;19969;-69
2023/07/16 01:48:49;;;;;;;;;;;;;;;;;;4959031;28;20051;-69
2023/07/16 01:51:15;;;;;;;;;;;;;;;;;;4958469;28;19962;-70
2023/07/16 01:53:40;;;;;;;;;;;;;;;;;;4958409;28;19958;-69
2023/07/16 01:56:06;;;;;;;;;;;;;;;;;;4958369;28;19973;-70
2023/07/16 01:58:32;;;;;;;;;;;;;;;;;;4958559;28;19980;-69
2023/07/16 02:00:58;;;;;;;;;;;;;;;;;;4958164;28;20120;-70
2023/07/16 02:03:24;;;;;;;;;;;;;;;;;;4958477;28;20056;-70
2023/07/16 02:05:50;;;;;;;;;;;;;;;;;;4958223;28;19957;-69
2023/07/16 02:08:16;;;;;;;;;;;;;;;;;;4958146;28;19964;-69
2023/07/16 02:10:42;;;;;;;;;;;;;;;;;;4958634;28;19958;-69
2023/07/16 02:13:08;;;;;;;;;;;;;;;;;;4958529;28;20044;-70
2023/07/16 02:15:33;;;;;;;;;;;;;;;;;;4958045;28;19964;-69
2023/07/16 02:17:59;;;;;;;;;;;;;;;;;;4958490;28;19993;-70
2023/07/16 02:20:25;;;;;;;;;;;;;;;;;;4958114;28;19958;-70
2023/07/16 02:22:51;;;;;;;;;;;;;;;;;;4957859;28;20479;-70
2023/07/16 02:25:17;;;;;;;;;;;;;;;;;;4958347;28;19964;-70
2023/07/16 02:27:44;;;;;;;;;;;;;;;;;;4958037;28;19958;-70
2023/07/16 02:30:10;;;;;;;;;;;;;;;;;;4958359;28;20013;-69
2023/07/16 02:32:36;;;;;;;;;;;;;;;;;;4957681;28;20379;-69
2023/07/16 02:35:02;;;;;;;;;;;;;;;;;;4957662;28;19963;-70
2023/07/16 02:37:28;;;;;;;;;;;;;;;;;;4958156;28;19989;-69
2023/07/16 02:39:54;;;;;;;;;;;;;;;;;;4957580;28;20000;-70
2023/07/16 02:42:20;;;;;;;;;;;;;;;;;;4957420;28;19985;-70
2023/07/16 02:44:46;;;;;;;;;;;;;;;;;;4957275;28;20016;-70
2023/07/16 02:47:12;;;;;;;;;;;;;;;;;;4957451;28;20009;-70
2023/07/16 02:49:38;;;;;;;;;;;;;;;;;;4957666;28;19958;-70
2023/07/16 02:52:04;;;;;;;;;;;;;;;;;;4957390;28;19989;-69
2023/07/16 02:54:30;;;;;;;;;;;;;;;;;;4957130;28;20376;-69
2023/07/16 02:56:56;;;;;;;;;;;;;;;;;;4957193;28;19989;-70
2023/07/16 02:59:22;;;;;;;;;;;;;;;;;;4955729;28;20385;-68
2023/07/16 03:01:48;;;;;;;;;;;;;;;;;;4957127;28;19977;-71
2023/07/16 03:04:14;;;;;;;;;;;;;;;;;;4957422;28;20178;-71
2023/07/16 03:06:40;;;;;;;;;;;;;;;;;;4957368;28;19957;-70
2023/07/16 03:09:06;;;;;;;;;;;;;;;;;;4957015;28;19958;-70
2023/07/16 03:11:32;;;;;;;;;;;;;;;;;;4956993;28;19958;-69
2023/07/16 03:13:58;;;;;;;;;;;;;;;;;;4957989;28;19958;-70
2023/07/16 03:16:23;;;;;;;;;;;;;;;;;;4957193;28;19957;-70
2023/07/16 03:18:49;;;;;;;;;;;;;;;;;;4957144;28;19999;-69
2023/07/16 03:21:15;;;;;;;;;;;;;;;;;;4956747;28;19984;-70
2023/07/16 03:23:41;;;;;;;;;;;;;;;;;;4957343;28;19958;-70
2023/07/16 03:26:07;;;;;;;;;;;;;;;;;;4956985;28;19964;-70
2023/07/16 03:28:33;;;;;;;;;;;;;;;;;;4956723;28;19965;-69
2023/07/16 03:30:59;;;;;;;;;;;;;;;;;;4956678;28;20332;-70
2023/07/16 03:33:25;;;;;;;;;;;;;;;;;;4957159;28;20415;-71
2023/07/16 03:35:51;;;;;;;;;;;;;;;;;;4956807;28;19961;-70
2023/07/16 03:38:17;;;;;;;;;;;;;;;;;;4956507;28;19958;-71
2023/07/16 03:40:42;;;;;;;;;;;;;;;;;;4956654;28;20048;-69
2023/07/16 03:43:08;;;;;;;;;;;;;;;;;;4956610;28;20355;-70
2023/07/16 03:45:34;;;;;;;;;;;;;;;;;;4956396;28;19997;-69
2023/07/16 03:48:00;;;;;;;;;;;;;;;;;;4956375;28;20340;-69
2023/07/16 03:50:26;;;;;;;;;;;;;;;;;;4956277;28;20005;-70
2023/07/16 03:52:52;;;;;;;;;;;;;;;;;;4956522;28;19957;-71
2023/07/16 03:55:18;;;;;;;;;;;;;;;;;;4956208;28;19957;-70
2023/07/16 03:57:44;;;;;;;;;;;;;;;;;;4956137;28;19984;-69
2023/07/16 04:00:10;;;;;;;;;;;;;;;;;;4956407;28;20001;-69
2023/07/16 04:02:36;;;;;;;;;;;;;;;;;;4956004;28;20475;-69
2023/07/16 04:05:02;;;;;;;;;;;;;;;;;;4956334;28;19958;-70
2023/07/16 04:07:28;;;;;;;;;;;;;;;;;;4955882;28;19958;-71
2023/07/16 04:09:54;;;;;;;;;;;;;;;;;;4956203;28;19984;-70
2023/07/16 04:12:20;;;;;;;;;;;;;;;;;;4955922;28;19958;-70
2023/07/16 04:14:46;;;;;;;;;;;;;;;;;;4956423;28;19964;-70
2023/07/16 04:17:12;;;;;;;;;;;;;;;;;;4956424;28;20012;-70
2023/07/16 04:19:37;;;;;;;;;;;;;;;;;;4955849;28;19997;-70
2023/07/16 04:22:03;;;;;;;;;;;;;;;;;;4956014;28;19978;-71
2023/07/16 04:24:29;;;;;;;;;;;;;;;;;;4955745;28;20432;-70
2023/07/16 04:26:55;;;;;;;;;;;;;;;;;;4956279;28;20305;-69
2023/07/16 04:29:21;;;;;;;;;;;;;;;;;;4955704;28;19965;-70
2023/07/16 04:31:47;;;;;;;;;;;;;;;;;;4955979;28;19958;-70
2023/07/16 04:34:13;;;;;;;;;;;;;;;;;;4955628;28;20336;-70
2023/07/16 04:36:39;;;;;;;;;;;;;;;;;;4955613;28;19964;-70
2023/07/16 04:39:05;;;;;;;;;;;;;;;;;;4955902;28;19969;-70
2023/07/16 04:41:31;;;;;;;;;;;;;;;;;;4955422;28;20359;-70
2023/07/16 04:43:56;;;;;;;;;;;;;;;;;;4955817;28;20040;-70
2023/07/16 04:46:22;;;;;;;;;;;;;;;;;;4955511;28;19970;-70
2023/07/16 04:48:48;;;;;;;;;;;;;;;;;;4955509;28;19964;-70
2023/07/16 04:51:14;;;;;;;;;;;;;;;;;;4955786;28;19958;-70
2023/07/16 04:53:40;;;;;;;;;;;;;;;;;;4955745;28;19969;-70
2023/07/16 04:56:10;;;;;;;;;;;;;;;;;;4954143;28;20049;-71
2023/07/16 04:58:36;;;;;;;;;;;;;;;;;;4955961;28;20009;-70
2023/07/16 05:01:01;;;;;;;;;;;;;;;;;;4955619;28;19981;-70
2023/07/16 05:03:27;;;;;;;;;;;;;;;;;;4955380;28;20440;-70
2023/07/16 05:05:53;;;;;;;;;;;;;;;;;;4955360;28;20001;-69
2023/07/16 05:08:19;;;;;;;;;;;;;;;;;;4955395;28;20430;-71
2023/07/16 05:10:45;;;;;;;;;;;;;;;;;;4955313;28;19968;-71
2023/07/16 05:13:11;;;;;;;;;;;;;;;;;;4956373;28;20422;-70
2023/07/16 05:15:37;;;;;;;;;;;;;;;;;;4955568;28;19957;-70
2023/07/16 05:18:03;;;;;;;;;;;;;;;;;;4956075;28;20449;-70
2023/07/16 05:20:28;;;;;;;;;;;;;;;;;;4959272;28;19958;-71
2023/07/16 05:22:54;;;;;;;;;;;;;;;;;;4958974;28;19966;-69
2023/07/16 05:25:20;;;;;;;;;;;;;;;;;;4959487;28;19958;-70
2023/07/16 05:27:46;;;;;;;;;;;;;;;;;;4959154;28;19957;-70
2023/07/16 05:30:12;;;;;;;;;;;;;;;;;;4959144;28;20057;-71
2023/07/16 05:32:38;;;;;;;;;;;;;;;;;;4958815;28;19957;-71
2023/07/16 05:35:04;;;;;;;;;;;;;;;;;;4958821;28;19958;-71
2023/07/16 05:37:30;;;;;;;;;;;;;;;;;;4959003;28;19964;-70
2023/07/16 05:39:56;;;;;;;;;;;;;;;;;;4958967;28;20427;-70
2023/07/16 05:42:21;;;;;;;;;;;;;;;;;;4958767;28;19985;-70
2023/07/16 05:44:47;;;;;;;;;;;;;;;;;;4958417;28;20092;-70
2023/07/16 05:47:13;;;;;;;;;;;;;;;;;;4958821;28;20008;-70
2023/07/16 05:49:39;;;;;;;;;;;;;;;;;;4958460;28;19980;-70
2023/07/16 05:52:05;;;;;;;;;;;;;;;;;;4958470;28;19962;-71
2023/07/16 05:54:31;;;;;;;;;;;;;;;;;;4958700;28;19958;-70
2023/07/16 05:56:57;;;;;;;;;;;;;;;;;;4958367;28;19964;-70
2023/07/16 05:59:23;;;;;;;;;;;;;;;;;;4958311;28;20416;-70
2023/07/16 06:01:49;;;;;;;;;;;;;;;;;;4958275;28;19985;-70
2023/07/16 06:04:15;;;;;;;;;;;;;;;;;;4958536;28;20013;-69
2023/07/16 06:06:41;;;;;;;;;;;;;;;;;;4958201;28;20379;-70
2023/07/16 06:09:06;;;;;;;;;;;;;;;;;;4958174;28;19964;-70
2023/07/16 06:11:32;;;;;;;;;;;;;;;;;;4958116;28;20596;-70
2023/07/16 06:13:58;;;;;;;;;;;;;;;;;;4958572;28;19957;-70
2023/07/16 06:16:24;;;;;;;;;;;;;;;;;;4958330;28;19957;-70
2023/07/16 06:18:50;;;;;;;;;;;;;;;;;;4957991;28;19958;-70
2023/07/16 06:21:16;;;;;;;;;;;;;;;;;;4957851;28;20083;-71
2023/07/16 06:23:42;;;;;;;;;;;;;;;;;;4957872;28;19957;-70
2023/07/16 06:26:08;;;;;;;;;;;;;;;;;;4957909;28;19958;-70
2023/07/16 06:28:33;;;;;;;;;;;;;;;;;;4958059;28;19958;-70
2023/07/16 06:30:59;;;;;;;;;;;;;;;;;;4956558;28;20069;-70
2023/07/16 06:33:27;;;;;;;;;;;;;;;;;;4957698;28;20013;-70
2023/07/16 06:35:52;;;;;;;;;;;;;;;;;;4958000;28;20434;-70
2023/07/16 06:38:18;;;;;;;;;;;;;;;;;;4958182;28;20044;-69
2023/07/16 06:40:44;;;;;;;;;;;;;;;;;;4957561;28;19958;-70
2023/07/16 06:43:10;;;;;;;;;;;;;;;;;;4957511;28;20021;-71
2023/07/16 06:45:36;;;;;;;;;;;;;;;;;;4957351;28;19993;-69
2023/07/16 06:48:02;;;;;;;;;;;;;;;;;;4957741;28;19957;-71
2023/07/16 06:50:28;;;;;;;;;;;;;;;;;;4957673;28;19958;-71
2023/07/16 06:52:54;;;;;;;;;;;;;;;;;;4957379;28;19997;-71
2023/07/16 06:55:20;;;;;;;;;;;;;;;;;;4957590;28;19965;-72
2023/07/16 06:57:45;;;;;;;;;;;;;;;;;;4957806;28;20455;-70
2023/07/16 07:00:11;;;;;;;;;;;;;;;;;;4957235;28;19997;-70
2023/07/16 07:02:37;;;;;;;;;;;;;;;;;;4957122;28;20347;-70
2023/07/16 07:05:03;;;;;;;;;;;;;;;;;;4957206;28;19973;-71
2023/07/16 07:07:29;;;;;;;;;;;;;;;;;;4957677;28;19997;-70
2023/07/16 07:09:55;;;;;;;;;;;;;;;;;;4957315;28;19962;-70
2023/07/16 07:12:21;;;;;;;;;;;;;;;;;;4957344;28;20435;-69
2023/07/16 07:14:47;;;;;;;;;;;;;;;;;;4957465;28;20004;-69
2023/07/16 07:17:13;;;;;;;;;;;;;;;;;;4957465;28;19965;-70
2023/07/16 07:19:39;;;;;;;;;;;;;;;;;;4956887;28;19957;-68
2023/07/16 07:22:05;;;;;;;;;;;;;;;;;;4956737;28;19988;-70
2023/07/16 07:24:30;;;;;;;;;;;;;;;;;;4956812;28;20044;-70
2023/07/16 07:26:56;;;;;;;;;;;;;;;;;;4956743;28;20325;-70
2023/07/16 07:29:22;;;;;;;;;;;;;;;;;;4956989;28;19965;-70
2023/07/16 07:31:48;;;;;;;;;;;;;;;;;;4956651;28;19958;-70
2023/07/16 07:34:14;;;;;;;;;;;;;;;;;;4956642;28;19962;-70
2023/07/16 07:36:40;;;;;;;;;;;;;;;;;;4956623;28;20349;-70
2023/07/16 07:39:06;;;;;;;;;;;;;;;;;;4956529;28;19958;-70
2023/07/16 07:41:32;;;;;;;;;;;;;;;;;;4956521;28;20331;-71
2023/07/16 07:43:58;;;;;;;;;;;;;;;;;;4956516;28;20057;-71
2023/07/16 07:46:24;;;;;;;;;;;;;;;;;;4956391;28;20355;-71
2023/07/16 07:48:49;;;;;;;;;;;;;;;;;;4956343;28;20432;-70
2023/07/16 07:51:15;;;;;;;;;;;;;;;;;;4956558;28;20013;-69
2023/07/16 07:53:41;;;;;;;;;;;;;;;;;;4956249;28;19958;-71
2023/07/16 07:56:07;;;;;;;;;;;;;;;;;;4956247;28;20487;-70
2023/07/16 07:58:33;;;;;;;;;;;;;;;;;;4956303;28;19964;-70
2023/07/16 08:00:59;;;;;;;;;;;;;;;;;;4956092;28;20458;-70
2023/07/16 08:03:25;;;;;;;;;;;;;;;;;;4956657;28;19962;-70
2023/07/16 08:05:51;;;;;;;;;;;;;;;;;;4954788;28;20001;-70
2023/07/16 08:08:17;;;;;;;;;;;;;;;;;;4956030;28;19964;-70
2023/07/16 08:10:42;;;;;;;;;;;;;;;;;;4955986;28;19962;-70
2023/07/16 08:13:09;;;;;;;;;;;;;;;;;;4955970;28;20004;-70
2023/07/16 08:15:34;;;;;;;;;;;;;;;;;;4955130;28;20384;-70
2023/07/16 08:18:00;;;;;;;;;;;;;;;;;;4956437;28;20061;-70
2023/07/16 08:20:26;;;;;;;;;;;;;;;;;;4956172;28;19957;-70
2023/07/16 08:22:52;;;;;;;;;;;;;;;;;;4956514;28;20001;-70
2023/07/16 08:25:18;;;;;;;;;;;;;;;;;;4955802;28;19961;-69
2023/07/16 08:27:45;;;;;;;;;;;;;;;;;;4955759;28;19981;-70
2023/07/16 08:30:11;;;;;;;;;;;;;;;;;;4956101;28;20479;-71
2023/07/16 08:32:37;;;;;;;;;;;;;;;;;;4955936;28;19957;-69
2023/07/16 08:35:03;;;;;;;;;;;;;;;;;;4956245;28;19958;-69
2023/07/16 08:37:29;;;;;;;;;;;;;;;;;;4955618;28;19958;-69
2023/07/16 08:39:55;;;;;;;;;;;;;;;;;;4955814;28;20115;-69
2023/07/16 08:42:21;;;;;;;;;;;;;;;;;;4955417;28;19986;-70
2023/07/16 08:44:47;;;;;;;;;;;;;;;;;;4955463;28;19993;-70
2023/07/16 08:47:13;;;;;;;;;;;;;;;;;;4956097;28;19973;-72
2023/07/16 08:49:38;;;;;;;;;;;;;;;;;;4955503;28;19988;-70
2023/07/16 08:52:04;;;;;;;;;;;;;;;;;;4955481;28;20007;-72
2023/07/16 08:54:30;;;;;;;;;;;;;;;;;;4958961;28;19964;-71
2023/07/16 08:56:56;;;;;;;;;;;;;;;;;;4959491;28;20431;-70
2023/07/16 08:59:22;;;;;;;;;;;;;;;;;;4959716;28;19958;-71
2023/07/16 09:01:48;;;;;;;;;;;;;;;;;;4959391;28;20355;-71
2023/07/16 09:04:14;;;;;;;;;;;;;;;;;;4959656;28;20382;-70
2023/07/16 09:06:40;;;;;;;;;;;;;;;;;;4959325;28;19957;-69
2023/07/16 09:09:06;;;;;;;;;;;;;;;;;;4959518;28;19958;-70
2023/07/16 09:11:32;;;;;;;;;;;;;;;;;;4959214;28;20412;-69
2023/07/16 09:13:58;;;;;;;;;;;;;;;;;;4959999;28;20027;-71
2023/07/16 09:16:24;;;;;;;;;;;;;;;;;;4959102;28;19981;-71
2023/07/16 09:18:50;;;;;;;;;;;;;;;;;;4959083;28;19958;-69
2023/07/16 09:21:16;;;;;;;;;;;;;;;;;;4959175;28;19983;-69
2023/07/16 09:23:42;;;;;;;;;;;;;;;;;;4959016;28;20040;-70
2023/07/16 09:26:07;;;;;;;;;;;;;;;;;;4959523;28;19964;-70
2023/07/16 09:28:33;;;;;;;;;;;;;;;;;;4958954;28;19958;-70
2023/07/16 09:30:59;;;;;;;;;;;;;;;;;;4959154;28;20001;-72
2023/07/16 09:33:26;;;;;;;;;;;;;;;;;;4958831;28;20009;-70
2023/07/16 09:35:51;;;;;;;;;;;;;;;;;;4959056;28;19958;-71
2023/07/16 09:38:17;;;;;;;;;;;;;;;;;;4958797;28;19964;-69
2023/07/16 09:40:43;;;;;;;;;;;;;;;;;;4958639;28;19985;-70
2023/07/16 09:43:09;;;;;;;;;;;;;;;;;;4958555;28;20451;-71
2023/07/16 09:45:35;;;;;;;;;;;;;;;;;;4958392;28;19997;-70
2023/07/16 09:48:01;;;;;;;;;;;;;;;;;;4958822;28;20008;-69
2023/07/16 09:50:27;;;;;;;;;;;;;;;;;;4958414;28;19962;-70
2023/07/16 09:52:53;;;;;;;;;;;;;;;;;;4958498;28;19957;-70
2023/07/16 09:55:19;;;;;;;;;;;;;;;;;;4958703;28;19957;-71
2023/07/16 09:57:45;;;;;;;;;;;;;;;;;;4958375;28;20428;-70
2023/07/16 10:00:13;;;;;;;;;;;;;;;;;;4958879;28;19964;-70
2023/07/16 10:02:39;;;;;;;;;;;;;;;;;;4958180;28;19978;-71
2023/07/16 10:05:05;;;;;;;;;;;;;;;;;;4957997;28;19969;-70
2023/07/16 10:07:31;;;;;;;;;;;;;;;;;;4958213;28;20380;-70
2023/07/16 10:09:57;;;;;;;;;;;;;;;;;;4958172;28;19989;-71
2023/07/16 10:12:23;;;;;;;;;;;;;;;;;;4958348;28;19964;-69
2023/07/16 10:14:49;;;;;;;;;;;;;;;;;;4958561;28;19958;-70
2023/07/16 10:17:15;;;;;;;;;;;;;;;;;;4958543;28;20436;-70
2023/07/16 10:19:41;;;;;;;;;;;;;;;;;;4957972;28;19958;-70
2023/07/16 10:22:07;;;;;;;;;;;;;;;;;;4958167;28;19977;-70
2023/07/16 10:24:33;;;;;;;;;;;;;;;;;;4956667;28;19965;-70
2023/07/16 10:26:59;;;;;;;;;;;;;;;;;;4957892;28;20041;-70
2023/07/16 10:29:25;;;;;;;;;;;;;;;;;;4957845;28;19962;-71
2023/07/16 10:31:51;;;;;;;;;;;;;;;;;;4958083;28;19965;-70
2023/07/16 10:34:17;;;;;;;;;;;;;;;;;;4958032;28;20440;-69
2023/07/16 10:36:43;;;;;;;;;;;;;;;;;;4957656;28;20044;-70
2023/07/16 10:39:09;;;;;;;;;;;;;;;;;;4957658;28;20402;-71
2023/07/16 10:41:35;;;;;;;;;;;;;;;;;;4957908;28;20093;-70
2023/07/16 10:44:01;;;;;;;;;;;;;;;;;;4957474;28;19957;-70
2023/07/16 10:46:27;;;;;;;;;;;;;;;;;;4956304;28;20420;-70
2023/07/16 10:48:53;;;;;;;;;;;;;;;;;;4957813;28;20008;-70
2023/07/16 10:51:18;;;;;;;;;;;;;;;;;;4957499;28;20048;-69
2023/07/16 10:53:44;;;;;;;;;;;;;;;;;;4957417;28;19958;-70
2023/07/16 10:56:10;;;;;;;;;;;;;;;;;;4957646;28;20297;-69
2023/07/16 10:58:36;;;;;;;;;;;;;;;;;;4957589;28;19957;-70
2023/07/16 11:01:02;;;;;;;;;;;;;;;;;;4957177;28;19981;-71
2023/07/16 11:03:28;;;;;;;;;;;;;;;;;;4957796;28;20396;-71
2023/07/16 11:05:54;;;;;;;;;;;;;;;;;;4957456;28;19969;-71
2023/07/16 11:08:20;;;;;;;;;;;;;;;;;;4957114;28;20535;-72
2023/07/16 11:10:46;;;;;;;;;;;;;;;;;;4957075;28;19961;-71
2023/07/16 11:13:11;;;;;;;;;;;;;;;;;;4957580;28;20348;-70
2023/07/16 11:15:37;;;;;;;;;;;;;;;;;;4956772;28;19964;-71
2023/07/16 11:18:03;;;;;;;;;;;;;;;;;;4957208;28;20380;-70
2023/07/16 11:20:29;;;;;;;;;;;;;;;;;;4956908;28;19957;-70
2023/07/16 11:22:55;;;;;;;;;;;;;;;;;;4957300;28;19981;-70
2023/07/16 11:25:22;;;;;;;;;;;;;;;;;;4956755;28;20019;-70
2023/07/16 11:27:47;;;;;;;;;;;;;;;;;;4956741;28;19996;-69
2023/07/16 11:30:13;;;;;;;;;;;;;;;;;;4956991;28;19957;-71
2023/07/16 11:32:39;;;;;;;;;;;;;;;;;;4956680;28;20363;-70
2023/07/16 11:35:05;;;;;;;;;;;;;;;;;;4956605;28;19961;-71
2023/07/16 11:37:31;;;;;;;;;;;;;;;;;;4957111;29;19964;-70
2023/07/16 11:39:57;;;;;;;;;;;;;;;;;;4956817;28;20052;-70
2023/07/16 11:42:23;;;;;;;;;;;;;;;;;;4956370;28;19988;-70
2023/07/16 11:44:49;;;;;;;;;;;;;;;;;;4956462;28;19994;-71
2023/07/16 11:47:15;;;;;;;;;;;;;;;;;;4956963;28;20304;-70
2023/07/16 11:49:41;;;;;;;;;;;;;;;;;;4956380;28;19957;-70
2023/07/16 11:52:07;;;;;;;;;;;;;;;;;;4956599;28;19958;-70
2023/07/16 11:54:33;;;;;;;;;;;;;;;;;;4956547;28;19993;-70
2023/07/16 11:56:59;;;;;;;;;;;;;;;;;;4956242;28;19963;-71
2023/07/16 11:59:24;;;;;;;;;;;;;;;;;;4956749;28;20416;-71
2023/07/16 12:01:50;;;;;;;;;;;;;;;;;;4956108;28;19981;-71
2023/07/16 12:04:17;;;;;;;;;;;;;;;;;;4956393;28;19961;-71
2023/07/16 12:06:43;;;;;;;;;;;;;;;;;;4956101;28;20045;-70
2023/07/16 12:09:09;;;;;;;;;;;;;;;;;;4956296;28;19989;-70
2023/07/16 12:11:35;;;;;;;;;;;;;;;;;;4956012;28;19957;-71
2023/07/16 12:14:01;;;;;;;;;;;;;;;;;;4956492;28;20009;-70
2023/07/16 12:16:27;;;;;;;;;;;;;;;;;;4956469;28;20404;-71
2023/07/16 12:18:52;;;;;;;;;;;;;;;;;;4956175;28;19958;-70
2023/07/16 12:21:18;;;;;;;;;;;;;;;;;;4955892;28;20522;-71
2023/07/16 12:23:44;;;;;;;;;;;;;;;;;;4955839;28;19958;-71
2023/07/16 12:26:10;;;;;;;;;;;;;;;;;;4956100;28;19957;-70
2023/07/16 12:28:36;;;;;;;;;;;;;;;;;;4955749;28;19957;-70
2023/07/16 12:31:02;;;;;;;;;;;;;;;;;;4955787;28;20451;-70
2023/07/16 12:33:28;;;;;;;;;;;;;;;;;;4955756;28;19957;-70
2023/07/16 12:35:54;;;;;;;;;;;;;;;;;;4955892;28;20052;-71
2023/07/16 12:38:20;;;;;;;;;;;;;;;;;;4955919;28;19965;-70
2023/07/16 12:40:46;;;;;;;;;;;;;;;;;;4956180;28;19964;-70
2023/07/16 12:43:12;;;;;;;;;;;;;;;;;;4955561;28;20056;-69
2023/07/16 12:45:38;;;;;;;;;;;;;;;;;;4955402;28;20475;-70
2023/07/16 12:48:04;;;;;;;;;;;;;;;;;;4955555;28;19958;-70
2023/07/16 12:50:30;;;;;;;;;;;;;;;;;;4956035;28;20467;-71
2023/07/16 12:52:56;;;;;;;;;;;;;;;;;;4955528;28;20048;-70
2023/07/16 12:55:23;;;;;;;;;;;;;;;;;;4956031;28;20405;-70
2023/07/16 12:57:48;;;;;;;;;;;;;;;;;;4955449;28;19958;-70
2023/07/16 13:00:14;;;;;;;;;;;;;;;;;;4955479;28;19964;-70
2023/07/16 13:02:40;;;;;;;;;;;;;;;;;;4955415;28;20005;-70
2023/07/16 13:05:06;;;;;;;;;;;;;;;;;;4955606;28;19965;-71
2023/07/16 13:07:32;;;;;;;;;;;;;;;;;;4955599;28;20016;-71
2023/07/16 13:09:58;;;;;;;;;;;;;;;;;;4955394;28;20023;-70
2023/07/16 13:12:24;;;;;;;;;;;;;;;;;;4955359;28;20383;-70
2023/07/16 13:14:50;;;;;;;;;;;;;;;;;;4955855;28;19964;-70
2023/07/16 13:17:17;;;;;;;;;;;;;;;;;;4955566;28;19961;-70
2023/07/16 13:19:43;;;;;;;;;;;;;;;;;;4955527;28;19958;-70
2023/07/16 13:22:09;;;;;;;;;;;;;;;;;;4955727;28;20001;-69
2023/07/16 13:24:35;;;;;;;;;;;;;;;;;;4955208;28;19958;-71
2023/07/16 13:27:01;;;;;;;;;;;;;;;;;;4955215;28;19958;-70
2023/07/16 13:29:27;;;;;;;;;;;;;;;;;;4955173;28;20439;-71
2023/07/16 13:31:52;;;;;;;;;;;;;;;;;;4955469;28;19957;-71
2023/07/16 13:34:18;;;;;;;;;;;;;;;;;;4955463;28;19958;-70
2023/07/16 13:36:44;;;;;;;;;;;;;;;;;;4955658;28;19965;-71
2023/07/16 13:39:13;;;;;;;;;;;;;;;;;;4955933;28;20048;-70
2023/07/16 13:41:38;;;;;;;;;;;;;;;;;;4958500;28;20024;-70
2023/07/16 13:44:04;;;;;;;;;;;;;;;;;;4958931;28;20324;-71
2023/07/16 13:46:30;;;;;;;;;;;;;;;;;;4958875;28;19965;-70
2023/07/16 13:48:57;;;;;;;;;;;;;;;;;;4958551;28;20293;-70
2023/07/16 13:51:22;;;;;;;;;;;;;;;;;;4959126;28;20372;-70
2023/07/16 13:53:48;;;;;;;;;;;;;;;;;;4958430;28;20041;-70
2023/07/16 13:56:14;;;;;;;;;;;;;;;;;;4958978;28;19958;-69
2023/07/16 13:58:40;;;;;;;;;;;;;;;;;;4958373;28;20040;-70
2023/07/16 14:01:06;;;;;;;;;;;;;;;;;;4958514;28;19957;-70
2023/07/16 14:03:32;;;;;;;;;;;;;;;;;;4958323;28;19965;-71
2023/07/16 14:05:58;;;;;;;;;;;;;;;;;;4958262;28;20005;-69
2023/07/16 14:08:24;;;;;;;;;;;;;;;;;;4958546;28;19964;-70
2023/07/16 14:10:50;;;;;;;;;;;;;;;;;;4958214;28;20004;-70
2023/07/16 14:13:16;;;;;;;;;;;;;;;;;;4958703;28;20056;-69
2023/07/16 14:15:42;;;;;;;;;;;;;;;;;;4958620;28;19985;-70
2023/07/16 14:18:07;;;;;;;;;;;;;;;;;;4958073;28;20029;-69
2023/07/16 14:20:33;;;;;;;;;;;;;;;;;;4958037;28;19957;-70
2023/07/16 14:22:59;;;;;;;;;;;;;;;;;;4958192;28;19977;-70
2023/07/16 14:25:25;;;;;;;;;;;;;;;;;;4958166;28;19976;-69
2023/07/16 14:27:51;;;;;;;;;;;;;;;;;;4957888;28;20048;-69
2023/07/16 14:30:17;;;;;;;;;;;;;;;;;;4957813;28;19957;-70
2023/07/16 14:32:43;;;;;;;;;;;;;;;;;;4958110;28;20044;-71
2023/07/16 14:35:11;;;;;;;;;;;;;;;;;;4957782;28;19965;-70
2023/07/16 14:37:37;;;;;;;;;;;;;;;;;;4957697;28;20089;-70
2023/07/16 14:40:05;;;;;;;;;;;;;;;;;;4957684;28;19997;-71
2023/07/16 14:42:31;;;;;;;;;;;;;;;;;;4957724;28;19989;-70
2023/07/16 14:44:57;;;;;;;;;;;;;;;;;;4957607;28;19993;-71
2023/07/16 14:47:23;;;;;;;;;;;;;;;;;;4957844;28;19957;-70
2023/07/16 14:49:49;;;;;;;;;;;;;;;;;;4957403;28;19958;-70
2023/07/16 14:52:15;;;;;;;;;;;;;;;;;;4956539;28;19957;-71
2023/07/16 14:54:41;;;;;;;;;;;;;;;;;;4957463;28;20363;-70
2023/07/16 14:57:07;;;;;;;;;;;;;;;;;;4957399;28;20036;-71
2023/07/16 14:59:34;;;;;;;;;;;;;;;;;;4957340;28;20431;-70
2023/07/16 15:02:00;;;;;;;;;;;;;;;;;;4957534;28;19982;-70
2023/07/16 15:04:26;;;;;;;;;;;;;;;;;;4957296;28;19961;-71
2023/07/16 15:06:52;;;;;;;;;;;;;;;;;;4957505;28;19964;-72
2023/07/16 15:09:18;;;;;;;;;;;;;;;;;;4955858;28;19961;-71
2023/07/16 15:11:44;;;;;;;;;;;;;;;;;;4957361;28;19965;-71
2023/07/16 15:14:11;;;;;;;;;;;;;;;;;;4957040;28;20328;-70
2023/07/16 15:16:37;;;;;;;;;;;;;;;;;;4956275;28;20390;-70
2023/07/16 15:19:03;;;;;;;;;;;;;;;;;;4957504;28;20052;-70
2023/07/16 15:21:29;;;;;;;;;;;;;;;;;;4956826;28;19984;-69
2023/07/16 15:23:55;;;;;;;;;;;;;;;;;;4956861;28;19964;-70
2023/07/16 15:26:23;;;;;;;;;;;;;;;;;;4956391;28;20276;-71
2023/07/16 15:28:49;;;;;;;;;;;;;;;;;;4957068;28;19958;-70
2023/07/16 15:31:15;;;;;;;;;;;;;;;;;;4956744;28;19958;-70
2023/07/16 15:33:40;;;;;;;;;;;;;;;;;;4956678;28;20046;-70
2023/07/16 15:36:06;;;;;;;;;;;;;;;;;;4956655;28;19961;-69
2023/07/16 15:38:32;;;;;;;;;;;;;;;;;;4955304;28;19965;-71
2023/07/16 15:40:58;;;;;;;;;;;;;;;;;;4956480;28;19958;-70
2023/07/16 15:43:24;;;;;;;;;;;;;;;;;;4956697;28;19981;-70
2023/07/16 15:45:50;;;;;;;;;;;;;;;;;;4956158;28;20093;-70
2023/07/16 15:48:17;;;;;;;;;;;;;;;;;;4956433;28;19961;-69
2023/07/16 15:50:43;;;;;;;;;;;;;;;;;;4956373;28;19957;-70
2023/07/16 15:53:09;;;;;;;;;;;;;;;;;;4956854;28;19958;-69
2023/07/16 15:55:35;;;;;;;;;;;;;;;;;;4956588;28;19957;-71
2023/07/16 15:58:01;;;;;;;;;;;;;;;;;;4956263;28;19957;-70
2023/07/16 16:00:27;;;;;;;;;;;;;;;;;;4956714;28;19957;-70
2023/07/16 16:02:55;;;;;;;;;;;;;;;;;;4956067;28;19977;-70
2023/07/16 16:05:21;;;;;;;;;;;;;;;;;;4956090;28;20052;-70
2023/07/16 16:07:47;;;;;;;;;;;;;;;;;;4956073;28;20044;-69
2023/07/16 16:10:13;;;;;;;;;;;;;;;;;;4956051;28;20001;-71
2023/07/16 16:12:39;;;;;;;;;;;;;;;;;;4956548;28;20352;-70
2023/07/16 16:15:04;;;;;;;;;;;;;;;;;;4956516;28;20409;-71
2023/07/16 16:17:30;;;;;;;;;;;;;;;;;;4956521;28;20364;-71
2023/07/16 16:19:56;;;;;;;;;;;;;;;;;;4955958;28;19964;-69
2023/07/16 16:22:22;;;;;;;;;;;;;;;;;;4956336;28;20455;-70
2023/07/16 16:24:48;;;;;;;;;;;;;;;;;;4956205;28;19958;-71
2023/07/16 16:27:15;;;;;;;;;;;;;;;;;;4955826;28;20339;-70
2023/07/16 16:29:41;;;;;;;;;;;;;;;;;;4954577;28;19961;-71
2023/07/16 16:32:07;;;;;;;;;;;;;;;;;;4955782;28;19964;-71
2023/07/16 16:34:33;;;;;;;;;;;;;;;;;;4955746;28;20012;-71
2023/07/16 16:36:59;;;;;;;;;;;;;;;;;;4956029;28;20001;-69